sensor_id;sensor_type;location;lat;lon;timestamp;pressure;altitude;pressure_sealevel;temperature;humidity
49915;BME280;35806;47.958;13.158;2023-05-09T00:00:52;95038.34;;;10.65;48.02
49915;BME280;35806;47.958;13.158;2023-05-09T00:03:19;95038.52;;;10.42;48.50
49915;BME280;35806;47.958;13.158;2023-05-09T00:05:46;95037.56;;;9.95;49.39
49915;BME280;35806;47.958;13.158;2023-05-09T00:08:14;95033.79;;;9.46;48.99
49915;BME280;35806;47.958;13.158;2023-05-09T00:10:41;95034.90;;;10.59;48.17
49915;BME280;35806;47.958;13.158;2023-05-09T00:13:08;95033.60;;;10.25;48.62
49915;BME280;35806;47.958;13.158;2023-05-09T00:15:35;95031.70;;;10.41;48.20
49915;BME280;35806;47.958;13.158;2023-05-09T00:18:02;95034.51;;;9.77;48.87
49915;BME280;35806;47.958;13.158;2023-05-09T00:20:29;95029.61;;;9.91;49.26
49915;BME280;35806;47.958;13.158;2023-05-09T00:23:01;95026.31;;;9.82;48.15
49915;BME280;35806;47.958;13.158;2023-05-09T00:25:28;95023.45;;;9.86;49.04
49915;BME280;35806;47.958;13.158;2023-05-09T00:27:56;95024.05;;;9.78;48.91
49915;BME280;35806;47.958;13.158;2023-05-09T00:30:23;95023.28;;;9.84;49.04
49915;BME280;35806;47.958;13.158;2023-05-09T00:32:50;95020.76;;;10.21;48.69
49915;BME280;35806;47.958;13.158;2023-05-09T00:35:17;95017.67;;;10.16;48.59
49915;BME280;35806;47.958;13.158;2023-05-09T00:37:44;95018.85;;;10.57;48.89
49915;BME280;35806;47.958;13.158;2023-05-09T00:40:12;95020.18;;;9.63;49.07
49915;BME280;35806;47.958;13.158;2023-05-09T00:42:40;95020.33;;;9.45;48.95
49915;BME280;35806;47.958;13.158;2023-05-09T00:45:08;95013.77;;;9.91;48.72
49915;BME280;35806;47.958;13.158;2023-05-09T00:47:37;95011.38;;;9.99;48.86
49915;BME280;35806;47.958;13.158;2023-05-09T00:50:06;95011.40;;;9.29;48.63
49915;BME280;35806;47.958;13.158;2023-05-09T00:52:33;95012.46;;;9.58;48.41
49915;BME280;35806;47.958;13.158;2023-05-09T00:55:01;95010.15;;;9.53;49.28
49915;BME280;35806;47.958;13.158;2023-05-09T00:57:28;95006.58;;;9.98;48.66
49915;BME280;35806;47.958;13.158;2023-05-09T00:59:57;95007.80;;;9.55;49.00
49915;BME280;35806;47.958;13.158;2023-05-09T01:16:00;94985.24;;;9.54;48.35
49915;BME280;35806;47.958;13.158;2023-05-09T01:18:36;94983.17;;;9.92;48.49
49915;BME280;35806;47.958;13.158;2023-05-09T01:21:09;94983.75;;;9.39;48.53
49915;BME280;35806;47.958;13.158;2023-05-09T01:23:55;94988.39;;;9.06;48.95
49915;BME280;35806;47.958;13.158;2023-05-09T01:26:34;94987.37;;;10.08;47.75
49915;BME280;35806;47.958;13.158;2023-05-09T01:29:26;94985.88;;;9.56;48.76
49915;BME280;35806;47.958;13.158;2023-05-09T01:31:56;94986.21;;;8.93;49.14
49915;BME280;35806;47.958;13.158;2023-05-09T01:34:25;94986.22;;;9.59;48.58
49915;BME280;35806;47.958;13.158;2023-05-09T01:36:56;94981.65;;;9.38;48.92
49915;BME280;35806;47.958;13.158;2023-05-09T01:39:26;94982.77;;;9.25;48.49
49915;BME280;35806;47.958;13.158;2023-05-09T01:41:56;94979.66;;;8.98;48.85
49915;BME280;35806;47.958;13.158;2023-05-09T01:44:24;94981.33;;;9.61;49.15
49915;BME280;35806;47.958;13.158;2023-05-09T01:46:53;94980.08;;;9.67;48.02
49915;BME280;35806;47.958;13.158;2023-05-09T01:49:21;94979.72;;;8.99;48.65
49915;BME280;35806;47.958;13.158;2023-05-09T01:51:51;94979.28;;;8.89;48.44
49915;BME280;35806;47.958;13.158;2023-05-09T01:54:25;94973.71;;;9.05;48.48
49915;BME280;35806;47.958;13.158;2023-05-09T01:56:54;94975.41;;;9.45;47.72
49915;BME280;35806;47.958;13.158;2023-05-09T01:59:22;94975.36;;;9.09;48.88
49915;BME280;35806;47.958;13.158;2023-05-09T02:01:50;94975.96;;;9.08;48.88
49915;BME280;35806;47.958;13.158;2023-05-09T02:04:18;94977.86;;;8.46;49.16
49915;BME280;35806;47.958;13.158;2023-05-09T02:06:47;94975.28;;;8.59;49.58
49915;BME280;35806;47.958;13.158;2023-05-09T02:09:17;94969.52;;;8.21;49.51
49915;BME280;35806;47.958;13.158;2023-05-09T02:11:45;94967.99;;;8.42;49.62
49915;BME280;35806;47.958;13.158;2023-05-09T02:14:12;94969.88;;;9.00;49.52
49915;BME280;35806;47.958;13.158;2023-05-09T02:16:40;94966.83;;;8.42;49.38
49915;BME280;35806;47.958;13.158;2023-05-09T02:19:07;94965.59;;;8.32;49.87
49915;BME280;35806;47.958;13.158;2023-05-09T02:21:34;94969.18;;;7.97;50.78
49915;BME280;35806;47.958;13.158;2023-05-09T02:24:01;94964.84;;;8.07;50.73
49915;BME280;35806;47.958;13.158;2023-05-09T02:26:29;94963.38;;;8.41;49.70
49915;BME280;35806;47.958;13.158;2023-05-09T02:28:57;94960.10;;;8.26;49.74
49915;BME280;35806;47.958;13.158;2023-05-09T02:31:26;94958.88;;;8.62;50.18
49915;BME280;35806;47.958;13.158;2023-05-09T02:33:56;94958.05;;;8.71;49.84
49915;BME280;35806;47.958;13.158;2023-05-09T02:36:23;94955.63;;;8.72;49.38
49915;BME280;35806;47.958;13.158;2023-05-09T02:38:50;94955.05;;;8.85;49.63
49915;BME280;35806;47.958;13.158;2023-05-09T02:41:18;94954.23;;;9.17;48.78
49915;BME280;35806;47.958;13.158;2023-05-09T02:43:45;94955.51;;;8.96;49.19
49915;BME280;35806;47.958;13.158;2023-05-09T02:46:13;94956.60;;;8.75;49.18
49915;BME280;35806;47.958;13.158;2023-05-09T02:48:40;94954.03;;;8.43;49.30
49915;BME280;35806;47.958;13.158;2023-05-09T02:51:07;94951.49;;;8.63;50.08
49915;BME280;35806;47.958;13.158;2023-05-09T02:53:35;94951.71;;;8.79;49.12
49915;BME280;35806;47.958;13.158;2023-05-09T02:56:01;94952.50;;;7.75;50.25
49915;BME280;35806;47.958;13.158;2023-05-09T02:58:28;94952.28;;;8.49;49.55
49915;BME280;35806;47.958;13.158;2023-05-09T03:00:55;94947.56;;;8.97;50.01
49915;BME280;35806;47.958;13.158;2023-05-09T03:03:22;94947.56;;;8.85;48.99
49915;BME280;35806;47.958;13.158;2023-05-09T03:05:49;94947.07;;;8.53;49.25
49915;BME280;35806;47.958;13.158;2023-05-09T03:08:17;94946.92;;;8.47;49.56
49915;BME280;35806;47.958;13.158;2023-05-09T03:10:44;94944.35;;;9.05;49.09
49915;BME280;35806;47.958;13.158;2023-05-09T03:13:12;94948.73;;;8.60;48.80
49915;BME280;35806;47.958;13.158;2023-05-09T03:15:39;94948.47;;;8.71;48.78
49915;BME280;35806;47.958;13.158;2023-05-09T03:18:12;94944.59;;;8.25;49.39
49915;BME280;35806;47.958;13.158;2023-05-09T03:20:39;94942.30;;;8.18;49.52
49915;BME280;35806;47.958;13.158;2023-05-09T03:23:06;94942.25;;;8.19;49.69
49915;BME280;35806;47.958;13.158;2023-05-09T03:25:34;94944.05;;;7.94;50.41
49915;BME280;35806;47.958;13.158;2023-05-09T03:28:01;94939.74;;;7.78;49.44
49915;BME280;35806;47.958;13.158;2023-05-09T03:30:29;94940.36;;;7.94;49.96
49915;BME280;35806;47.958;13.158;2023-05-09T03:32:56;94935.33;;;8.41;49.68
49915;BME280;35806;47.958;13.158;2023-05-09T03:35:23;94939.61;;;8.01;50.05
49915;BME280;35806;47.958;13.158;2023-05-09T03:37:51;94938.01;;;7.92;49.77
49915;BME280;35806;47.958;13.158;2023-05-09T03:40:18;94939.56;;;7.65;50.71
49915;BME280;35806;47.958;13.158;2023-05-09T03:42:45;94938.94;;;7.69;50.33
49915;BME280;35806;47.958;13.158;2023-05-09T03:45:12;94939.36;;;7.80;50.43
49915;BME280;35806;47.958;13.158;2023-05-09T03:47:39;94938.18;;;8.01;50.65
49915;BME280;35806;47.958;13.158;2023-05-09T03:50:07;94938.62;;;7.88;50.16
49915;BME280;35806;47.958;13.158;2023-05-09T03:52:34;94939.32;;;7.69;50.91
49915;BME280;35806;47.958;13.158;2023-05-09T03:55:01;94938.85;;;7.76;50.74
49915;BME280;35806;47.958;13.158;2023-05-09T03:57:28;94939.01;;;7.70;50.98
49915;BME280;35806;47.958;13.158;2023-05-09T03:59:56;94936.63;;;8.17;50.79
49915;BME280;35806;47.958;13.158;2023-05-09T04:02:23;94942.48;;;7.82;50.84
49915;BME280;35806;47.958;13.158;2023-05-09T04:04:50;94938.99;;;7.76;50.26
49915;BME280;35806;47.958;13.158;2023-05-09T04:07:18;94936.00;;;8.04;50.10
49915;BME280;35806;47.958;13.158;2023-05-09T04:09:46;94941.75;;;7.60;50.92
49915;BME280;35806;47.958;13.158;2023-05-09T04:12:13;94939.98;;;8.22;50.29
49915;BME280;35806;47.958;13.158;2023-05-09T04:14:40;94941.83;;;8.36;50.14
49915;BME280;35806;47.958;13.158;2023-05-09T04:17:08;94942.68;;;8.25;49.53
49915;BME280;35806;47.958;13.158;2023-05-09T04:19:35;94942.72;;;7.76;50.31
49915;BME280;35806;47.958;13.158;2023-05-09T04:22:03;94943.98;;;7.58;49.68
49915;BME280;35806;47.958;13.158;2023-05-09T04:24:30;94939.13;;;8.35;49.39
49915;BME280;35806;47.958;13.158;2023-05-09T04:27:03;94938.44;;;8.27;49.39
49915;BME280;35806;47.958;13.158;2023-05-09T04:29:30;94937.90;;;7.50;50.40
49915;BME280;35806;47.958;13.158;2023-05-09T04:31:58;94934.91;;;7.90;49.70
49915;BME280;35806;47.958;13.158;2023-05-09T04:34:25;94938.86;;;7.96;49.89
49915;BME280;35806;47.958;13.158;2023-05-09T04:36:52;94935.69;;;8.16;50.16
49915;BME280;35806;47.958;13.158;2023-05-09T04:39:20;94933.18;;;8.33;49.55
49915;BME280;35806;47.958;13.158;2023-05-09T04:41:47;94934.49;;;8.02;49.86
49915;BME280;35806;47.958;13.158;2023-05-09T04:44:15;94936.29;;;7.70;50.89
49915;BME280;35806;47.958;13.158;2023-05-09T04:46:42;94937.25;;;8.40;50.51
49915;BME280;35806;47.958;13.158;2023-05-09T04:49:09;94933.31;;;8.13;49.78
49915;BME280;35806;47.958;13.158;2023-05-09T04:51:36;94931.43;;;8.42;49.87
49915;BME280;35806;47.958;13.158;2023-05-09T04:54:04;94933.42;;;7.08;50.92
49915;BME280;35806;47.958;13.158;2023-05-09T04:56:31;94936.16;;;7.82;50.79
49915;BME280;35806;47.958;13.158;2023-05-09T04:58:59;94937.38;;;7.84;51.26
49915;BME280;35806;47.958;13.158;2023-05-09T05:01:27;94937.30;;;7.97;50.36
49915;BME280;35806;47.958;13.158;2023-05-09T05:03:54;94935.64;;;8.65;49.18
49915;BME280;35806;47.958;13.158;2023-05-09T05:06:21;94935.76;;;9.07;48.92
49915;BME280;35806;47.958;13.158;2023-05-09T05:08:48;94937.88;;;9.20;49.00
49915;BME280;35806;47.958;13.158;2023-05-09T05:11:16;94935.78;;;8.83;48.51
49915;BME280;35806;47.958;13.158;2023-05-09T05:13:43;94941.41;;;8.65;48.71
49915;BME280;35806;47.958;13.158;2023-05-09T05:16:10;94939.41;;;8.53;49.52
49915;BME280;35806;47.958;13.158;2023-05-09T05:18:37;94939.17;;;8.73;48.77
49915;BME280;35806;47.958;13.158;2023-05-09T05:21:15;94936.89;;;8.40;49.69
49915;BME280;35806;47.958;13.158;2023-05-09T05:23:42;94935.66;;;9.34;48.76
49915;BME280;35806;47.958;13.158;2023-05-09T05:26:10;94933.87;;;8.87;49.04
49915;BME280;35806;47.958;13.158;2023-05-09T05:28:37;94934.67;;;9.35;48.26
49915;BME280;35806;47.958;13.158;2023-05-09T05:31:05;94931.54;;;9.44;48.29
49915;BME280;35806;47.958;13.158;2023-05-09T05:33:33;94926.61;;;9.72;47.68
49915;BME280;35806;47.958;13.158;2023-05-09T05:36:00;94925.04;;;9.88;46.95
49915;BME280;35806;47.958;13.158;2023-05-09T05:38:28;94923.89;;;10.09;46.69
49915;BME280;35806;47.958;13.158;2023-05-09T05:40:55;94922.74;;;10.20;46.58
49915;BME280;35806;47.958;13.158;2023-05-09T05:43:22;94922.61;;;9.97;46.44
49915;BME280;35806;47.958;13.158;2023-05-09T05:45:50;94925.97;;;9.97;46.81
49915;BME280;35806;47.958;13.158;2023-05-09T05:48:17;94922.71;;;9.78;47.13
49915;BME280;35806;47.958;13.158;2023-05-09T05:50:44;94916.24;;;10.21;47.25
49915;BME280;35806;47.958;13.158;2023-05-09T05:53:12;94917.54;;;10.01;46.79
49915;BME280;35806;47.958;13.158;2023-05-09T05:55:40;94916.81;;;10.26;47.50
49915;BME280;35806;47.958;13.158;2023-05-09T05:58:07;94917.02;;;9.57;48.09
49915;BME280;35806;47.958;13.158;2023-05-09T06:00:34;94917.13;;;10.05;47.32
49915;BME280;35806;47.958;13.158;2023-05-09T06:03:01;94914.02;;;9.24;48.15
49915;BME280;35806;47.958;13.158;2023-05-09T06:05:29;94912.89;;;9.69;47.71
49915;BME280;35806;47.958;13.158;2023-05-09T06:07:56;94912.05;;;9.92;47.81
49915;BME280;35806;47.958;13.158;2023-05-09T06:10:23;94912.42;;;9.52;48.19
49915;BME280;35806;47.958;13.158;2023-05-09T06:12:50;94910.30;;;9.38;48.49
49915;BME280;35806;47.958;13.158;2023-05-09T06:15:17;94909.89;;;10.13;47.56
49915;BME280;35806;47.958;13.158;2023-05-09T06:17:44;94907.17;;;10.02;47.70
49915;BME280;35806;47.958;13.158;2023-05-09T06:20:12;94907.54;;;9.88;46.93
49915;BME280;35806;47.958;13.158;2023-05-09T06:22:39;94902.45;;;10.13;46.86
49915;BME280;35806;47.958;13.158;2023-05-09T06:25:06;94902.43;;;10.82;46.42
49915;BME280;35806;47.958;13.158;2023-05-09T06:27:34;94901.77;;;10.70;44.98
49915;BME280;35806;47.958;13.158;2023-05-09T06:30:01;94899.55;;;10.85;44.91
49915;BME280;35806;47.958;13.158;2023-05-09T06:32:28;94899.36;;;11.50;44.29
49915;BME280;35806;47.958;13.158;2023-05-09T06:34:55;94894.93;;;11.32;45.14
49915;BME280;35806;47.958;13.158;2023-05-09T06:37:22;94896.04;;;11.34;45.00
49915;BME280;35806;47.958;13.158;2023-05-09T06:39:50;94894.12;;;11.78;44.82
49915;BME280;35806;47.958;13.158;2023-05-09T06:42:17;94892.96;;;11.62;45.20
49915;BME280;35806;47.958;13.158;2023-05-09T06:44:44;94891.69;;;12.54;44.00
49915;BME280;35806;47.958;13.158;2023-05-09T06:47:11;94894.22;;;11.58;44.35
49915;BME280;35806;47.958;13.158;2023-05-09T06:49:38;94892.65;;;11.32;45.28
49915;BME280;35806;47.958;13.158;2023-05-09T06:52:05;94891.87;;;11.27;44.44
49915;BME280;35806;47.958;13.158;2023-05-09T06:54:32;94892.94;;;11.36;45.52
49915;BME280;35806;47.958;13.158;2023-05-09T06:57:00;94889.73;;;11.99;44.49
49915;BME280;35806;47.958;13.158;2023-05-09T06:59:27;94884.72;;;11.74;44.86
49915;BME280;35806;47.958;13.158;2023-05-09T07:01:54;94882.17;;;11.86;44.18
49915;BME280;35806;47.958;13.158;2023-05-09T07:04:21;94878.89;;;11.81;44.66
49915;BME280;35806;47.958;13.158;2023-05-09T07:06:48;94876.35;;;12.00;45.03
49915;BME280;35806;47.958;13.158;2023-05-09T07:09:16;94873.54;;;11.78;44.37
49915;BME280;35806;47.958;13.158;2023-05-09T07:11:43;94873.08;;;12.77;42.98
49915;BME280;35806;47.958;13.158;2023-05-09T07:14:10;94866.63;;;12.96;43.34
49915;BME280;35806;47.958;13.158;2023-05-09T07:16:38;94866.51;;;13.05;42.38
49915;BME280;35806;47.958;13.158;2023-05-09T07:19:04;94867.77;;;12.84;43.82
49915;BME280;35806;47.958;13.158;2023-05-09T07:21:32;94863.86;;;13.12;43.02
49915;BME280;35806;47.958;13.158;2023-05-09T07:24:00;94860.29;;;12.85;43.87
49915;BME280;35806;47.958;13.158;2023-05-09T07:26:27;94860.27;;;13.23;43.49
49915;BME280;35806;47.958;13.158;2023-05-09T07:28:54;94860.66;;;13.13;43.07
49915;BME280;35806;47.958;13.158;2023-05-09T07:31:21;94859.07;;;13.56;44.18
49915;BME280;35806;47.958;13.158;2023-05-09T07:33:49;94855.65;;;13.36;42.80
49915;BME280;35806;47.958;13.158;2023-05-09T07:36:16;94851.45;;;13.67;42.06
49915;BME280;35806;47.958;13.158;2023-05-09T07:38:43;94847.56;;;14.20;41.99
49915;BME280;35806;47.958;13.158;2023-05-09T07:41:10;94846.86;;;14.00;42.11
49915;BME280;35806;47.958;13.158;2023-05-09T07:43:38;94842.21;;;14.14;41.98
49915;BME280;35806;47.958;13.158;2023-05-09T07:46:05;94837.38;;;14.00;41.67
49915;BME280;35806;47.958;13.158;2023-05-09T07:48:33;94835.67;;;14.08;41.09
49915;BME280;35806;47.958;13.158;2023-05-09T07:51:01;94835.14;;;14.29;41.54
49915;BME280;35806;47.958;13.158;2023-05-09T07:53:28;94831.08;;;14.66;41.47
49915;BME280;35806;47.958;13.158;2023-05-09T07:55:55;94830.64;;;13.77;42.52
49915;BME280;35806;47.958;13.158;2023-05-09T07:58:22;94828.69;;;14.31;42.20
49915;BME280;35806;47.958;13.158;2023-05-09T08:00:50;94829.41;;;14.79;41.97
49915;BME280;35806;47.958;13.158;2023-05-09T08:03:17;94829.29;;;14.76;42.19
49915;BME280;35806;47.958;13.158;2023-05-09T08:05:45;94830.72;;;15.15;41.38
49915;BME280;35806;47.958;13.158;2023-05-09T08:08:17;94833.25;;;15.22;40.23
49915;BME280;35806;47.958;13.158;2023-05-09T08:10:44;94834.40;;;15.44;40.27
49915;BME280;35806;47.958;13.158;2023-05-09T08:13:12;94835.47;;;15.55;40.81
49915;BME280;35806;47.958;13.158;2023-05-09T08:15:39;94830.73;;;15.14;40.95
49915;BME280;35806;47.958;13.158;2023-05-09T08:18:06;94826.51;;;15.55;40.23
49915;BME280;35806;47.958;13.158;2023-05-09T08:20:34;94823.79;;;16.20;39.83
49915;BME280;35806;47.958;13.158;2023-05-09T08:23:02;94823.64;;;15.67;40.03
49915;BME280;35806;47.958;13.158;2023-05-09T08:25:29;94821.21;;;16.22;38.90
49915;BME280;35806;47.958;13.158;2023-05-09T08:27:56;94817.79;;;16.35;38.57
49915;BME280;35806;47.958;13.158;2023-05-09T08:30:23;94819.20;;;15.38;41.16
49915;BME280;35806;47.958;13.158;2023-05-09T08:32:50;94816.63;;;16.12;41.03
49915;BME280;35806;47.958;13.158;2023-05-09T08:35:18;94817.33;;;15.57;40.85
49915;BME280;35806;47.958;13.158;2023-05-09T08:37:45;94815.30;;;15.47;41.89
49915;BME280;35806;47.958;13.158;2023-05-09T08:40:12;94811.61;;;15.73;40.82
49915;BME280;35806;47.958;13.158;2023-05-09T08:42:40;94811.96;;;15.92;41.38
49915;BME280;35806;47.958;13.158;2023-05-09T08:45:12;94808.27;;;16.55;39.27
49915;BME280;35806;47.958;13.158;2023-05-09T08:47:40;94807.67;;;15.99;39.72
49915;BME280;35806;47.958;13.158;2023-05-09T08:50:09;94808.62;;;16.57;39.42
49915;BME280;35806;47.958;13.158;2023-05-09T08:52:36;94804.50;;;16.57;39.46
49915;BME280;35806;47.958;13.158;2023-05-09T08:55:04;94800.64;;;17.09;39.92
49915;BME280;35806;47.958;13.158;2023-05-09T08:57:32;94796.31;;;16.94;38.53
49915;BME280;35806;47.958;13.158;2023-05-09T09:00:00;94792.76;;;16.96;39.89
49915;BME280;35806;47.958;13.158;2023-05-09T09:02:28;94787.18;;;16.72;39.49
49915;BME280;35806;47.958;13.158;2023-05-09T09:04:57;94784.79;;;17.84;39.33
49915;BME280;35806;47.958;13.158;2023-05-09T09:07:24;94783.19;;;17.62;37.29
49915;BME280;35806;47.958;13.158;2023-05-09T09:09:53;94776.42;;;17.86;38.11
49915;BME280;35806;47.958;13.158;2023-05-09T09:12:22;94776.54;;;17.61;37.75
49915;BME280;35806;47.958;13.158;2023-05-09T09:14:53;94775.81;;;17.27;38.31
49915;BME280;35806;47.958;13.158;2023-05-09T09:17:24;94771.92;;;18.64;37.05
49915;BME280;35806;47.958;13.158;2023-05-09T09:19:54;94772.37;;;18.93;36.76
49915;BME280;35806;47.958;13.158;2023-05-09T09:22:22;94771.04;;;19.58;35.88
49915;BME280;35806;47.958;13.158;2023-05-09T09:24:50;94772.87;;;18.67;35.96
49915;BME280;35806;47.958;13.158;2023-05-09T09:27:17;94768.50;;;18.78;36.34
49915;BME280;35806;47.958;13.158;2023-05-09T09:29:45;94763.94;;;19.12;36.85
49915;BME280;35806;47.958;13.158;2023-05-09T09:32:12;94760.69;;;19.59;34.77
49915;BME280;35806;47.958;13.158;2023-05-09T09:34:39;94758.79;;;20.13;35.51
49915;BME280;35806;47.958;13.158;2023-05-09T09:37:06;94754.64;;;19.97;35.62
49915;BME280;35806;47.958;13.158;2023-05-09T09:39:33;94753.32;;;20.71;35.33
49915;BME280;35806;47.958;13.158;2023-05-09T09:42:10;94750.06;;;20.07;34.15
49915;BME280;35806;47.958;13.158;2023-05-09T09:44:37;94748.22;;;20.35;34.34
49915;BME280;35806;47.958;13.158;2023-05-09T09:47:08;94745.38;;;21.14;34.62
49915;BME280;35806;47.958;13.158;2023-05-09T09:49:36;94737.02;;;21.26;34.11
49915;BME280;35806;47.958;13.158;2023-05-09T09:52:03;94732.06;;;20.68;33.77
49915;BME280;35806;47.958;13.158;2023-05-09T09:54:31;94732.26;;;20.75;34.34
49915;BME280;35806;47.958;13.158;2023-05-09T09:56:59;94724.48;;;20.50;34.39
49915;BME280;35806;47.958;13.158;2023-05-09T09:59:27;94719.24;;;21.45;33.97
49915;BME280;35806;47.958;13.158;2023-05-09T10:01:56;94716.52;;;20.81;33.96
49915;BME280;35806;47.958;13.158;2023-05-09T10:04:25;94713.21;;;21.04;35.07
49915;BME280;35806;47.958;13.158;2023-05-09T10:07:00;94711.61;;;21.08;35.42
49915;BME280;35806;47.958;13.158;2023-05-09T10:09:28;94706.15;;;21.37;35.19
49915;BME280;35806;47.958;13.158;2023-05-09T10:11:56;94703.46;;;21.23;33.18
49915;BME280;35806;47.958;13.158;2023-05-09T10:14:30;94697.58;;;20.36;34.17
49915;BME280;35806;47.958;13.158;2023-05-09T10:17:01;94698.30;;;21.51;35.36
49915;BME280;35806;47.958;13.158;2023-05-09T10:19:29;94691.26;;;20.11;35.92
49915;BME280;35806;47.958;13.158;2023-05-09T10:21:59;94687.95;;;21.31;36.25
49915;BME280;35806;47.958;13.158;2023-05-09T10:24:33;94683.76;;;20.46;35.73
49915;BME280;35806;47.958;13.158;2023-05-09T10:27:04;94675.63;;;20.26;35.63
49915;BME280;35806;47.958;13.158;2023-05-09T10:29:39;94672.46;;;21.69;35.02
49915;BME280;35806;47.958;13.158;2023-05-09T10:32:17;94673.61;;;19.75;35.66
49915;BME280;35806;47.958;13.158;2023-05-09T10:34:51;94667.07;;;21.33;34.88
49915;BME280;35806;47.958;13.158;2023-05-09T10:37:20;94660.19;;;21.61;33.98
49915;BME280;35806;47.958;13.158;2023-05-09T10:39:48;94655.99;;;21.88;33.09
49915;BME280;35806;47.958;13.158;2023-05-09T10:42:16;94655.75;;;22.36;32.03
49915;BME280;35806;47.958;13.158;2023-05-09T10:44:44;94656.35;;;22.33;33.04
49915;BME280;35806;47.958;13.158;2023-05-09T10:47:13;94656.83;;;21.35;33.61
49915;BME280;35806;47.958;13.158;2023-05-09T10:49:42;94648.14;;;22.12;34.08
49915;BME280;35806;47.958;13.158;2023-05-09T10:52:10;94647.03;;;22.40;32.95
49915;BME280;35806;47.958;13.158;2023-05-09T10:54:37;94638.28;;;22.36;32.13
49915;BME280;35806;47.958;13.158;2023-05-09T10:57:08;94637.72;;;21.90;32.30
49915;BME280;35806;47.958;13.158;2023-05-09T10:59:37;94634.53;;;22.33;32.66
49915;BME280;35806;47.958;13.158;2023-05-09T11:02:11;94632.54;;;22.41;32.63
49915;BME280;35806;47.958;13.158;2023-05-09T11:04:39;94625.84;;;22.09;31.95
49915;BME280;35806;47.958;13.158;2023-05-09T11:07:21;94623.68;;;21.22;32.90
49915;BME280;35806;47.958;13.158;2023-05-09T11:09:51;94611.39;;;21.89;33.52
49915;BME280;35806;47.958;13.158;2023-05-09T11:12:19;94610.89;;;22.53;33.18
49915;BME280;35806;47.958;13.158;2023-05-09T11:14:50;94609.01;;;22.83;33.63
49915;BME280;35806;47.958;13.158;2023-05-09T11:17:27;94607.88;;;22.27;33.22
49915;BME280;35806;47.958;13.158;2023-05-09T11:19:59;94606.15;;;22.66;32.22
49915;BME280;35806;47.958;13.158;2023-05-09T11:22:27;94598.67;;;22.19;32.04
49915;BME280;35806;47.958;13.158;2023-05-09T11:25:02;94594.90;;;22.70;32.23
49915;BME280;35806;47.958;13.158;2023-05-09T11:27:37;94587.42;;;22.16;31.70
49915;BME280;35806;47.958;13.158;2023-05-09T11:30:07;94586.15;;;22.27;33.63
49915;BME280;35806;47.958;13.158;2023-05-09T11:32:41;94574.92;;;22.13;33.21
49915;BME280;35806;47.958;13.158;2023-05-09T11:35:10;94579.31;;;22.19;32.72
49915;BME280;35806;47.958;13.158;2023-05-09T11:37:44;94576.30;;;22.39;32.61
49915;BME280;35806;47.958;13.158;2023-05-09T11:40:13;94572.53;;;22.35;32.90
49915;BME280;35806;47.958;13.158;2023-05-09T11:42:42;94572.91;;;22.57;32.07
49915;BME280;35806;47.958;13.158;2023-05-09T11:45:10;94564.78;;;23.13;33.42
49915;BME280;35806;47.958;13.158;2023-05-09T11:47:38;94559.74;;;21.94;33.85
49915;BME280;35806;47.958;13.158;2023-05-09T11:50:06;94556.97;;;21.56;33.19
49915;BME280;35806;47.958;13.158;2023-05-09T11:52:34;94550.47;;;21.44;33.81
49915;BME280;35806;47.958;13.158;2023-05-09T11:55:01;94552.86;;;21.72;33.55
49915;BME280;35806;47.958;13.158;2023-05-09T11:57:28;94548.46;;;21.86;33.73
49915;BME280;35806;47.958;13.158;2023-05-09T11:59:56;94542.96;;;21.93;33.33
49915;BME280;35806;47.958;13.158;2023-05-09T12:02:25;94537.71;;;21.86;33.78
49915;BME280;35806;47.958;13.158;2023-05-09T12:04:53;94531.59;;;21.58;35.86
49915;BME280;35806;47.958;13.158;2023-05-09T12:07:25;94529.59;;;21.49;34.03
49915;BME280;35806;47.958;13.158;2023-05-09T12:09:53;94528.73;;;21.16;33.12
49915;BME280;35806;47.958;13.158;2023-05-09T12:12:20;94518.25;;;21.10;33.04
49915;BME280;35806;47.958;13.158;2023-05-09T12:14:47;94519.51;;;21.10;34.42
49915;BME280;35806;47.958;13.158;2023-05-09T12:17:14;94516.65;;;21.32;34.54
49915;BME280;35806;47.958;13.158;2023-05-09T12:19:43;94518.49;;;20.91;34.65
49915;BME280;35806;47.958;13.158;2023-05-09T12:22:10;94508.46;;;21.73;35.79
49915;BME280;35806;47.958;13.158;2023-05-09T12:24:38;94504.60;;;21.90;33.47
49915;BME280;35806;47.958;13.158;2023-05-09T12:27:06;94497.89;;;20.94;35.24
49915;BME280;35806;47.958;13.158;2023-05-09T12:29:34;94496.49;;;21.76;33.68
49915;BME280;35806;47.958;13.158;2023-05-09T12:32:01;94493.01;;;21.23;34.23
49915;BME280;35806;47.958;13.158;2023-05-09T12:34:32;94497.41;;;21.67;34.33
49915;BME280;35806;47.958;13.158;2023-05-09T12:37:00;94496.53;;;21.42;33.56
49915;BME280;35806;47.958;13.158;2023-05-09T12:39:32;94491.21;;;20.87;34.63
49915;BME280;35806;47.958;13.158;2023-05-09T12:42:00;94484.32;;;21.12;34.59
49915;BME280;35806;47.958;13.158;2023-05-09T12:44:28;94487.61;;;21.10;34.54
49915;BME280;35806;47.958;13.158;2023-05-09T12:46:56;94483.27;;;21.34;33.69
49915;BME280;35806;47.958;13.158;2023-05-09T12:49:25;94483.03;;;20.70;34.29
49915;BME280;35806;47.958;13.158;2023-05-09T12:51:53;94472.18;;;21.59;33.69
49915;BME280;35806;47.958;13.158;2023-05-09T12:54:22;94471.82;;;20.71;34.64
49915;BME280;35806;47.958;13.158;2023-05-09T12:56:50;94462.10;;;20.97;34.77
49915;BME280;35806;47.958;13.158;2023-05-09T12:59:20;94455.92;;;20.80;34.76
49915;BME280;35806;47.958;13.158;2023-05-09T13:01:52;94453.20;;;21.60;34.36
49915;BME280;35806;47.958;13.158;2023-05-09T13:04:20;94450.27;;;21.64;33.78
49915;BME280;35806;47.958;13.158;2023-05-09T13:06:49;94447.54;;;20.92;34.46
49915;BME280;35806;47.958;13.158;2023-05-09T13:09:17;94444.49;;;20.70;36.15
49915;BME280;35806;47.958;13.158;2023-05-09T13:11:45;94445.84;;;19.94;34.66
49915;BME280;35806;47.958;13.158;2023-05-09T13:14:12;94445.33;;;19.34;35.04